createdAt,value
2023-03-07T00:01:09.280Z,56.83
2023-03-07T00:03:36.948Z,56.70
2023-03-07T00:06:08.427Z,57.26
2023-03-07T00:08:36.267Z,57.00
2023-03-07T00:11:08.691Z,56.96
2023-03-07T00:13:37.576Z,56.86
2023-03-07T00:16:13.707Z,56.52
2023-03-07T00:18:41.412Z,56.49
2023-03-07T00:21:14.972Z,56.48
2023-03-07T00:23:44.399Z,56.55
2023-03-07T00:26:20.787Z,56.78
2023-03-07T00:28:50.651Z,56.46
2023-03-07T00:31:18.713Z,56.34
2023-03-07T00:33:45.654Z,56.47
2023-03-07T00:36:16.757Z,56.78
2023-03-07T00:38:44.647Z,56.94
2023-03-07T00:41:33.010Z,56.78
2023-03-07T00:43:59.833Z,57.07
2023-03-07T00:46:27.345Z,57.15
2023-03-07T00:48:54.471Z,57.36
2023-03-07T00:51:23.620Z,57.71
2023-03-07T00:53:51.293Z,57.90
2023-03-07T00:56:24.296Z,58.04
2023-03-07T00:58:51.833Z,57.97
2023-03-07T01:01:23.363Z,57.99
2023-03-07T01:03:53.560Z,57.70
2023-03-07T01:06:27.444Z,57.08
2023-03-07T01:08:57.676Z,57.16
2023-03-07T01:11:25.707Z,57.11
2023-03-07T01:13:56.729Z,57.59
2023-03-07T01:16:27.879Z,57.65
2023-03-07T01:18:58.450Z,57.97
2023-03-07T01:21:38.168Z,57.77
2023-03-07T01:24:12.437Z,57.58
2023-03-07T01:26:39.332Z,57.20
2023-03-07T01:29:07.758Z,57.72
2023-03-07T01:31:34.988Z,57.80
2023-03-07T01:34:02.617Z,57.73
2023-03-07T01:36:33.240Z,57.47
2023-03-07T01:39:06.600Z,57.57
2023-03-07T01:41:39.894Z,57.52
2023-03-07T01:44:25.618Z,57.45
2023-03-07T01:46:57.440Z,56.97
2023-03-07T01:49:30.287Z,57.34
2023-03-07T01:52:05.615Z,57.14
2023-03-07T01:54:34.457Z,57.07
2023-03-07T01:57:03.290Z,57.07
2023-03-07T01:59:37.027Z,56.68
2023-03-07T02:02:11.869Z,56.80
2023-03-07T02:04:58.876Z,56.17
2023-03-07T02:07:30.708Z,56.16
2023-03-07T02:09:58.979Z,56.11
2023-03-07T02:12:25.914Z,56.06
2023-03-07T02:14:52.839Z,56.06
2023-03-07T02:17:19.980Z,55.83
2023-03-07T02:20:23.016Z,55.97
2023-03-07T02:22:50.294Z,55.72
2023-03-07T02:25:25.798Z,55.87
2023-03-07T02:27:55.603Z,56.07
2023-03-07T02:30:22.847Z,55.69
2023-03-07T02:32:49.738Z,55.51
2023-03-07T02:35:23.965Z,55.72
2023-03-07T02:37:55.867Z,55.79
2023-03-07T02:40:25.799Z,55.63
2023-03-07T02:42:55.811Z,55.94
2023-03-07T02:45:22.672Z,55.55
2023-03-07T02:47:49.529Z,55.81
2023-03-07T02:50:17.797Z,55.95
2023-03-07T02:52:44.805Z,55.34
2023-03-07T02:55:12.698Z,55.26
2023-03-07T02:57:39.463Z,55.21
2023-03-07T03:00:08.184Z,55.05
2023-03-07T03:02:35.371Z,55.01
2023-03-07T03:05:02.293Z,54.98
2023-03-07T03:07:29.181Z,54.33
2023-03-07T03:09:56.066Z,53.83
2023-03-07T03:12:22.909Z,54.10
2023-03-07T03:14:49.872Z,53.94
2023-03-07T03:17:17.261Z,53.88
2023-03-07T03:19:44.093Z,53.69
2023-03-07T03:22:11.125Z,54.00
2023-03-07T03:24:42.427Z,53.63
2023-03-07T03:27:09.754Z,53.48
2023-03-07T03:29:36.608Z,53.22
2023-03-07T03:32:03.691Z,52.76
2023-03-07T03:34:30.632Z,53.13
2023-03-07T03:36:57.655Z,52.74
2023-03-07T03:39:24.502Z,52.62
2023-03-07T03:41:51.452Z,53.19
2023-03-07T03:44:18.222Z,52.90
2023-03-07T03:46:45.074Z,52.94
2023-03-07T03:49:13.712Z,52.50
2023-03-07T03:51:40.611Z,52.45
2023-03-07T03:54:07.479Z,52.98
2023-03-07T03:56:34.270Z,52.46
2023-03-07T03:59:01.089Z,52.47
2023-03-07T04:01:29.725Z,52.06
2023-03-07T04:03:57.792Z,52.24
2023-03-07T04:06:28.536Z,52.77
2023-03-07T04:08:55.874Z,52.37
2023-03-07T04:11:24.413Z,51.88
2023-03-07T04:13:51.598Z,52.26
2023-03-07T04:16:19.663Z,52.10
2023-03-07T04:18:46.572Z,52.34
2023-03-07T04:21:13.412Z,52.83
2023-03-07T04:23:40.337Z,52.71
2023-03-07T04:26:09.861Z,52.70
2023-03-07T04:28:43.642Z,52.69
2023-03-07T04:31:19.566Z,52.66
2023-03-07T04:33:47.595Z,52.40
2023-03-07T04:36:18.774Z,52.42
2023-03-07T04:38:47.177Z,52.42
2023-03-07T04:41:25.558Z,52.62
2023-03-07T04:43:52.629Z,52.84
2023-03-07T04:46:20.570Z,52.78
2023-03-07T04:48:47.857Z,53.10
2023-03-07T04:51:14.906Z,53.22
2023-03-07T04:53:41.827Z,52.81
2023-03-07T04:56:09.987Z,53.10
2023-03-07T04:58:37.390Z,53.42
2023-03-07T05:01:05.726Z,53.67
2023-03-07T05:03:33.676Z,53.71
2023-03-07T05:06:10.483Z,54.19
2023-03-07T05:08:37.431Z,53.50
2023-03-07T05:11:04.504Z,53.70
2023-03-07T05:13:31.917Z,54.17
2023-03-07T05:15:59.757Z,54.13
2023-03-07T05:18:27.489Z,54.72
2023-03-07T05:20:54.393Z,54.03
2023-03-07T05:23:21.884Z,54.31
2023-03-07T05:25:48.801Z,54.16
2023-03-07T05:28:16.990Z,54.29
2023-03-07T05:30:45.553Z,54.83
2023-03-07T05:33:12.873Z,54.18
2023-03-07T05:35:39.965Z,54.07
2023-03-07T05:38:07.290Z,54.05
2023-03-07T05:40:34.906Z,54.07
2023-03-07T05:43:02.072Z,53.19
2023-03-07T05:45:28.990Z,54.01
2023-03-07T05:47:55.835Z,53.59
2023-03-07T05:50:22.737Z,53.56
2023-03-07T05:52:49.853Z,53.23
2023-03-07T05:55:16.771Z,53.51
2023-03-07T05:57:43.575Z,53.45
2023-03-07T06:00:11.446Z,53.20
2023-03-07T06:02:38.352Z,52.83
2023-03-07T06:05:05.741Z,53.21
2023-03-07T06:07:32.560Z,52.93
2023-03-07T06:09:59.419Z,53.30
2023-03-07T06:12:26.357Z,52.71
2023-03-07T06:14:53.237Z,52.45
2023-03-07T06:17:20.065Z,52.34
2023-03-07T06:19:46.914Z,52.03
2023-03-07T06:22:13.803Z,52.79
2023-03-07T06:24:40.635Z,52.29
2023-03-07T06:27:07.425Z,51.90
2023-03-07T06:29:34.428Z,52.06
2023-03-07T06:32:01.307Z,52.28
2023-03-07T06:34:28.183Z,52.28
2023-03-07T06:36:55.173Z,51.36
2023-03-07T06:39:22.064Z,51.28
2023-03-07T06:41:50.033Z,51.30
2023-03-07T06:46:45.939Z,50.38
2023-03-07T06:49:13.316Z,50.41
2023-03-07T06:51:40.323Z,50.49
2023-03-07T06:54:07.464Z,50.13
2023-03-07T06:56:35.246Z,49.00
2023-03-07T06:59:02.957Z,49.30
2023-03-07T07:01:29.931Z,49.03
2023-03-07T07:03:57.082Z,48.52
2023-03-07T07:06:24.081Z,48.72
2023-03-07T07:08:55.445Z,48.88
2023-03-07T07:11:23.665Z,48.69
2023-03-07T07:13:50.894Z,48.06
2023-03-07T07:16:18.982Z,47.82
2023-03-07T07:18:46.042Z,47.21
2023-03-07T07:21:12.949Z,47.86
2023-03-07T07:23:40.076Z,46.78
2023-03-07T07:26:06.944Z,46.62
2023-03-07T07:28:33.806Z,46.30
2023-03-07T07:31:07.641Z,46.27
2023-03-07T07:33:35.853Z,47.00
2023-03-07T07:36:02.686Z,47.83
2023-03-07T07:38:29.497Z,46.97
2023-03-07T07:40:56.498Z,47.07
2023-03-07T07:43:23.357Z,47.61
2023-03-07T07:45:50.268Z,47.56
2023-03-07T07:48:17.394Z,47.45
2023-03-07T07:50:44.265Z,46.66
2023-03-07T07:53:11.163Z,45.92
2023-03-07T07:55:38.112Z,45.78
2023-03-07T07:58:05.175Z,46.39
2023-03-07T08:00:32.492Z,44.44
2023-03-07T08:03:00.227Z,44.63
2023-03-07T08:05:27.140Z,44.54
2023-03-07T08:07:54.073Z,44.58
2023-03-07T08:10:21.739Z,43.99
2023-03-07T08:12:52.794Z,43.65
2023-03-07T08:15:23.719Z,42.81
2023-03-07T08:17:51.340Z,43.40
2023-03-07T08:20:22.155Z,43.24
2023-03-07T08:22:50.487Z,42.41
2023-03-07T08:25:21.783Z,42.92
2023-03-07T08:27:53.033Z,41.99
2023-03-07T08:30:20.093Z,40.77
2023-03-07T08:32:50.804Z,39.79
2023-03-07T08:35:18.881Z,39.78
2023-03-07T08:37:46.802Z,40.15
2023-03-07T08:40:14.452Z,40.42
2023-03-07T08:42:41.362Z,40.44
2023-03-07T08:45:09.316Z,39.53
2023-03-07T08:47:36.176Z,39.22
2023-03-07T08:50:05.249Z,39.13
2023-03-07T08:52:32.205Z,38.10
2023-03-07T08:54:59.135Z,37.90
2023-03-07T08:57:25.986Z,38.41
2023-03-07T08:59:52.844Z,38.18
2023-03-07T09:02:19.641Z,37.16
2023-03-07T09:04:46.693Z,36.92
2023-03-07T09:07:13.523Z,38.57
2023-03-07T09:09:40.426Z,39.24
2023-03-07T09:12:07.506Z,38.26
2023-03-07T09:14:34.378Z,36.98
2023-03-07T09:17:01.191Z,36.80
2023-03-07T09:19:28.067Z,37.22
2023-03-07T09:21:55.327Z,37.99
2023-03-07T09:24:22.228Z,37.78
2023-03-07T09:26:49.071Z,37.52
2023-03-07T09:29:16.780Z,37.21
2023-03-07T09:31:44.188Z,37.39
2023-03-07T09:34:11.420Z,37.07
2023-03-07T09:36:38.426Z,36.50
2023-03-07T09:39:06.101Z,35.94
2023-03-07T09:41:56.865Z,36.50
2023-03-07T09:44:46.735Z,36.02
2023-03-07T09:47:42.008Z,35.73
2023-03-07T09:50:23.422Z,35.27
2023-03-07T09:52:53.781Z,37.06
2023-03-07T09:55:22.065Z,36.83
2023-03-07T09:57:58.770Z,34.97
2023-03-07T10:00:38.038Z,35.69
2023-03-07T10:03:36.209Z,34.33
2023-03-07T10:06:16.400Z,36.08
2023-03-07T10:08:43.266Z,35.34
2023-03-07T10:11:41.906Z,35.22
2023-03-07T10:14:51.098Z,35.85
2023-03-07T10:17:35.627Z,34.97
2023-03-07T10:20:46.990Z,35.04
2023-03-07T10:23:54.277Z,35.79
2023-03-07T10:26:30.504Z,36.75
2023-03-07T10:29:00.314Z,36.42
2023-03-07T10:31:39.306Z,35.51
2023-03-07T10:34:29.199Z,36.49
2023-03-07T10:37:08.916Z,34.49
2023-03-07T10:39:52.357Z,35.25
2023-03-07T10:42:25.341Z,35.67
2023-03-07T10:44:52.538Z,34.03
2023-03-07T10:47:23.212Z,33.98
2023-03-07T10:49:55.158Z,34.27
2023-03-07T10:52:40.076Z,33.15
2023-03-07T10:55:39.807Z,33.42
2023-03-07T10:58:24.341Z,33.65
2023-03-07T11:01:16.463Z,33.39
2023-03-07T11:03:56.873Z,32.16
2023-03-07T11:06:36.954Z,31.92
2023-03-07T11:09:31.833Z,30.70
2023-03-07T11:12:13.989Z,31.30
2023-03-07T11:14:54.877Z,29.75
2023-03-07T11:17:24.193Z,30.42
2023-03-07T11:19:57.986Z,30.26
2023-03-07T11:22:36.559Z,30.05
2023-03-07T11:25:25.844Z,31.09
2023-03-07T11:27:56.286Z,31.72
2023-03-07T11:30:41.077Z,32.08
2023-03-07T11:33:40.562Z,31.48
2023-03-07T11:36:16.988Z,30.58
2023-03-07T11:38:56.577Z,29.14
2023-03-07T11:41:40.548Z,30.95
2023-03-07T11:44:35.183Z,30.86
2023-03-07T11:47:50.820Z,29.89
2023-03-07T11:50:27.724Z,30.67
2023-03-07T11:53:28.493Z,31.39
2023-03-07T11:56:29.224Z,30.01
2023-03-07T11:59:37.516Z,29.73
2023-03-07T12:02:29.716Z,29.91
2023-03-07T12:05:27.343Z,29.40
2023-03-07T12:08:20.763Z,29.67
2023-03-07T12:11:23.594Z,30.08
2023-03-07T12:14:27.167Z,31.04
2023-03-07T12:17:20.639Z,29.41
2023-03-07T12:20:20.568Z,29.00
2023-03-07T12:22:59.985Z,28.54
2023-03-07T12:25:40.294Z,28.04
2023-03-07T12:28:11.537Z,28.00
2023-03-07T12:30:59.551Z,27.39
2023-03-07T12:34:00.298Z,28.11
2023-03-07T12:36:46.821Z,27.53
2023-03-07T12:39:55.358Z,27.03
2023-03-07T12:43:00.414Z,26.36
2023-03-07T12:45:40.876Z,26.50
2023-03-07T12:48:43.208Z,26.06
2023-03-07T12:51:33.534Z,26.72
2023-03-07T12:54:17.487Z,28.07
2023-03-07T12:56:55.948Z,27.74
2023-03-07T12:59:23.077Z,26.62
2023-03-07T13:02:02.224Z,26.11
2023-03-07T13:04:37.023Z,25.88
2023-03-07T13:07:15.628Z,24.28
2023-03-07T13:09:49.165Z,23.85
2023-03-07T13:12:16.343Z,23.06
2023-03-07T13:15:31.014Z,22.42
2023-03-07T13:18:00.596Z,23.61
2023-03-07T13:20:40.658Z,23.36
2023-03-07T13:23:33.592Z,22.38
2023-03-07T13:26:04.334Z,22.38
2023-03-07T13:28:42.442Z,22.81
2023-03-07T13:31:15.404Z,22.48
2023-03-07T13:33:42.835Z,23.76
2023-03-07T13:36:38.649Z,22.82
2023-03-07T13:39:38.146Z,23.81
2023-03-07T13:42:05.173Z,23.55
2023-03-07T13:44:42.099Z,24.22
2023-03-07T13:47:44.645Z,23.99
2023-03-07T13:50:35.431Z,23.87
2023-03-07T13:53:16.682Z,24.45
2023-03-07T13:55:47.729Z,25.80
2023-03-07T13:58:34.240Z,24.99
2023-03-07T14:01:13.467Z,24.63
2023-03-07T14:03:53.049Z,23.50
2023-03-07T14:06:36.525Z,24.47
2023-03-07T14:09:07.042Z,24.58
2023-03-07T14:11:51.321Z,23.62
2023-03-07T14:14:45.611Z,23.20
2023-03-07T14:17:15.077Z,24.17
2023-03-07T14:20:01.578Z,23.69
2023-03-07T14:23:18.443Z,25.11
2023-03-07T14:25:54.504Z,25.47
2023-03-07T14:28:27.472Z,25.50
2023-03-07T14:31:05.515Z,25.68
2023-03-07T14:33:35.891Z,26.91
2023-03-07T14:36:25.517Z,26.15
2023-03-07T14:38:58.111Z,26.08
2023-03-07T14:42:00.797Z,26.48
2023-03-07T14:45:14.949Z,26.12
2023-03-07T14:48:02.632Z,27.13
2023-03-07T14:50:31.709Z,27.96
2023-03-07T14:53:05.397Z,27.81
2023-03-07T14:55:39.184Z,25.76
2023-03-07T14:58:06.783Z,26.36
2023-03-07T15:00:35.704Z,26.79
2023-03-07T15:03:10.690Z,27.98
2023-03-07T15:05:46.419Z,29.31
2023-03-07T15:08:24.344Z,31.03
2023-03-07T15:11:11.218Z,31.68
2023-03-07T15:13:56.917Z,31.93
2023-03-07T15:16:41.466Z,30.81
2023-03-07T15:19:22.521Z,29.22
2023-03-07T15:22:01.442Z,28.07
2023-03-07T15:24:35.068Z,27.64
2023-03-07T15:27:02.424Z,28.32
2023-03-07T15:29:31.226Z,27.91
2023-03-07T15:32:02.606Z,27.54
2023-03-07T15:34:39.027Z,28.59
2023-03-07T15:37:22.487Z,29.63
2023-03-07T15:40:30.742Z,29.76
2023-03-07T15:43:04.767Z,30.29
2023-03-07T15:45:38.462Z,31.40
2023-03-07T15:48:43.416Z,31.65
2023-03-07T15:51:19.238Z,32.27
2023-03-07T15:53:59.412Z,33.00
2023-03-07T15:56:35.140Z,33.37
2023-03-07T15:59:07.273Z,34.08
2023-03-07T16:01:34.122Z,36.40
2023-03-07T16:04:04.053Z,35.00
2023-03-07T16:06:44.614Z,35.33
2023-03-07T16:09:18.755Z,35.15
2023-03-07T16:11:47.014Z,35.19
2023-03-07T16:14:32.678Z,35.76
2023-03-07T16:17:03.433Z,35.81
2023-03-07T16:19:30.643Z,35.47
2023-03-07T16:21:57.544Z,36.27
2023-03-07T16:24:24.384Z,36.04
2023-03-07T16:26:51.371Z,36.52
2023-03-07T16:29:22.714Z,36.84
2023-03-07T16:31:49.655Z,37.43
2023-03-07T16:34:20.708Z,36.64
2023-03-07T16:36:48.145Z,37.04
2023-03-07T16:39:15.859Z,36.46
2023-03-07T16:41:48.746Z,36.76
2023-03-07T16:44:22.073Z,37.36
2023-03-07T16:47:01.636Z,38.47
2023-03-07T16:49:28.429Z,39.05
2023-03-07T16:52:05.041Z,39.20
2023-03-07T16:54:32.861Z,38.74
2023-03-07T16:57:01.471Z,39.48
2023-03-07T16:59:34.705Z,39.00
2023-03-07T17:02:03.292Z,39.42
2023-03-07T17:04:30.111Z,40.99
2023-03-07T17:07:04.462Z,40.40
2023-03-07T17:09:31.773Z,40.68
2023-03-07T17:11:59.298Z,41.01
2023-03-07T17:14:26.117Z,40.52
2023-03-07T17:16:52.972Z,41.10
2023-03-07T17:19:28.212Z,41.06
2023-03-07T17:21:57.500Z,41.38
2023-03-07T17:24:25.380Z,42.18
2023-03-07T17:26:53.679Z,42.43
2023-03-07T17:29:37.526Z,43.21
2023-03-07T17:32:04.929Z,43.12
2023-03-07T17:34:34.321Z,43.37
2023-03-07T17:37:01.575Z,43.70
2023-03-07T17:39:34.198Z,43.70
2023-03-07T17:42:02.043Z,43.78
2023-03-07T17:44:29.691Z,43.99
2023-03-07T17:46:58.420Z,44.05
2023-03-07T17:49:28.449Z,43.77
2023-03-07T17:51:55.267Z,43.76
2023-03-07T17:54:22.138Z,44.12
2023-03-07T17:56:48.974Z,43.91
2023-03-07T17:59:15.853Z,44.65
2023-03-07T18:01:42.939Z,44.40
2023-03-07T18:04:10.228Z,44.59
2023-03-07T18:06:39.904Z,44.93
2023-03-07T18:09:08.068Z,44.73
2023-03-07T18:11:35.375Z,44.74
2023-03-07T18:14:03.522Z,45.16
2023-03-07T18:16:30.812Z,45.34
2023-03-07T18:19:00.759Z,45.48
2023-03-07T18:21:29.772Z,45.58
2023-03-07T18:23:57.651Z,45.91
2023-03-07T18:26:24.794Z,46.31
2023-03-07T18:28:53.580Z,46.68
2023-03-07T18:31:30.346Z,46.35
2023-03-07T18:33:57.165Z,46.24
2023-03-07T18:36:25.368Z,46.41
2023-03-07T18:38:52.691Z,45.90
2023-03-07T18:41:25.954Z,45.97
2023-03-07T18:43:54.740Z,45.40
2023-03-07T18:46:24.202Z,45.11
2023-03-07T18:48:51.544Z,44.99
2023-03-07T18:51:26.617Z,44.90
2023-03-07T18:54:00.335Z,45.25
2023-03-07T18:56:28.537Z,44.85
2023-03-07T18:58:58.902Z,44.78
2023-03-07T19:01:36.653Z,45.05
2023-03-07T19:04:05.274Z,45.10
2023-03-07T19:06:41.381Z,45.15
2023-03-07T19:09:14.283Z,44.88
2023-03-07T19:11:41.082Z,45.07
2023-03-07T19:14:07.997Z,44.94
2023-03-07T19:16:34.866Z,45.33
2023-03-07T19:19:02.821Z,45.34
2023-03-07T19:21:30.582Z,45.83
2023-03-07T19:24:02.685Z,46.08
2023-03-07T19:26:29.837Z,45.90
2023-03-07T19:28:57.867Z,46.14
2023-03-07T19:31:31.179Z,46.13
2023-03-07T19:33:58.596Z,46.52
2023-03-07T19:36:28.640Z,47.14
2023-03-07T19:38:58.902Z,47.07
2023-03-07T19:41:28.917Z,46.98
2023-03-07T19:43:57.707Z,46.76
2023-03-07T19:46:25.631Z,47.19
2023-03-07T19:48:52.471Z,47.40
2023-03-07T19:51:23.530Z,47.90
2023-03-07T19:53:50.774Z,48.00
2023-03-07T19:56:20.060Z,47.64
2023-03-07T19:58:47.002Z,48.00
2023-03-07T20:01:17.214Z,47.97
2023-03-07T20:03:44.890Z,48.24
2023-03-07T20:06:18.710Z,47.35
2023-03-07T20:08:54.732Z,46.92
2023-03-07T20:11:28.066Z,47.05
2023-03-07T20:13:58.326Z,46.93
2023-03-07T20:16:28.961Z,47.26
2023-03-07T20:19:02.145Z,47.48
2023-03-07T20:21:29.981Z,47.56
2023-03-07T20:24:00.535Z,47.82
2023-03-07T20:26:31.626Z,47.58
2023-03-07T20:28:59.668Z,47.35
2023-03-07T20:31:27.492Z,47.46
2023-03-07T20:33:54.445Z,47.28
2023-03-07T20:36:24.979Z,47.76
2023-03-07T20:38:58.168Z,47.60
2023-03-07T20:41:31.690Z,48.24
2023-03-07T20:44:04.641Z,47.83
2023-03-07T20:46:32.585Z,48.91
2023-03-07T20:49:01.136Z,48.82
2023-03-07T20:51:31.661Z,48.60
2023-03-07T20:54:05.522Z,47.60
2023-03-07T20:56:35.253Z,47.70
2023-03-07T20:59:02.664Z,47.51
2023-03-07T21:01:32.326Z,47.29
2023-03-07T21:04:12.222Z,47.68
2023-03-07T21:06:43.016Z,47.92
2023-03-07T21:09:11.885Z,47.46
2023-03-07T21:11:44.845Z,47.48
2023-03-07T21:14:13.114Z,47.68
2023-03-07T21:16:40.262Z,48.14
2023-03-07T21:19:07.918Z,48.03
2023-03-07T21:21:35.860Z,48.23
2023-03-07T21:24:03.812Z,48.12
2023-03-07T21:26:34.497Z,47.84
2023-03-07T21:29:03.712Z,47.77
2023-03-07T21:31:33.497Z,47.42
2023-03-07T21:34:07.257Z,47.32
2023-03-07T21:36:34.573Z,47.22
2023-03-07T21:39:04.139Z,46.81
2023-03-07T21:41:31.314Z,47.13
2023-03-07T21:43:58.458Z,46.44
2023-03-07T21:46:25.935Z,46.13
2023-03-07T21:48:53.418Z,45.82
2023-03-07T21:51:20.809Z,46.13
2023-03-07T21:53:47.702Z,46.44
2023-03-07T21:56:17.176Z,46.04
2023-03-07T21:58:48.919Z,45.80
2023-03-07T22:01:21.682Z,45.77
2023-03-07T22:03:52.540Z,45.97
2023-03-07T22:06:19.603Z,45.76
2023-03-07T22:08:46.437Z,45.80
2023-03-07T22:11:14.049Z,45.78
2023-03-07T22:13:41.980Z,45.56
2023-03-07T22:16:13.055Z,45.29
2023-03-07T22:18:40.490Z,45.87
2023-03-07T22:21:17.285Z,45.81
2023-03-07T22:23:44.458Z,45.63
2023-03-07T22:26:12.718Z,45.63
2023-03-07T22:28:43.215Z,45.35
2023-03-07T22:31:12.698Z,45.52
2023-03-07T22:33:41.014Z,45.08
2023-03-07T22:36:11.895Z,45.29
2023-03-07T22:38:39.093Z,44.99
2023-03-07T22:41:12.212Z,45.31
2023-03-07T22:43:39.585Z,45.33
2023-03-07T22:46:07.248Z,45.09
2023-03-07T22:48:34.741Z,44.92
2023-03-07T22:51:01.798Z,44.92
2023-03-07T22:53:33.437Z,45.23
2023-03-07T22:56:00.667Z,44.52
2023-03-07T22:58:29.306Z,44.79
2023-03-07T23:00:56.671Z,44.14
2023-03-07T23:03:23.753Z,44.63
2023-03-07T23:05:50.927Z,44.53
2023-03-07T23:08:17.864Z,44.98
2023-03-07T23:10:44.830Z,44.40
2023-03-07T23:13:11.626Z,44.82
2023-03-07T23:15:41.576Z,45.12
2023-03-07T23:18:09.176Z,44.85
2023-03-07T23:20:39.129Z,45.30
2023-03-07T23:23:06.702Z,44.90
2023-03-07T23:25:33.993Z,44.34
2023-03-07T23:28:01.177Z,44.89
2023-03-07T23:30:28.091Z,44.75
2023-03-07T23:32:55.152Z,45.09
2023-03-07T23:35:22.080Z,44.59
2023-03-07T23:37:48.906Z,44.61
2023-03-07T23:40:15.847Z,44.08
2023-03-07T23:42:42.650Z,44.35
2023-03-07T23:45:09.943Z,44.38
2023-03-07T23:47:36.852Z,44.24
2023-03-07T23:50:04.147Z,44.38
2023-03-07T23:52:31.009Z,44.63
2023-03-07T23:54:57.921Z,44.12
2023-03-07T23:57:24.776Z,44.24
2023-03-07T23:59:52.131Z,44.13
